Time;durP1;ratioP1;P1;durP2;ratioP2;P2;SDS_P1;SDS_P2;PMS_P1;PMS_P2;Temp;Humidity;BMP_temperature;BMP_pressure;BME280_temperature;BME280_humidity;BME280_pressure;Samples;Min_cycle;Max_cycle;Signal;HPM_P1;HPM_P2
2023/10/27 00:02:24;;;;;;;;;;;20.60;70.50;;;;;;5025954;28;1452;-70
2023/10/27 00:04:49;;;;;;;;;;;20.60;70.60;;;;;;5008597;28;2022;-70
2023/10/27 00:07:14;;;;;;;;;;;20.60;70.70;;;;;;4992830;28;1765;-70
2023/10/27 00:09:41;;;;;;;;;;;20.60;70.60;;;;;;5007075;28;1924;-70
2023/10/27 00:12:06;;;;;;;;;;;20.60;70.70;;;;;;5026853;28;1418;-69
2023/10/27 00:14:33;;;;;;;;;;;20.50;70.60;;;;;;5003919;28;1513;-69
2023/10/27 00:16:59;;;;;;;;;;;20.50;70.60;;;;;;4994551;28;1276;-69
2023/10/27 00:19:24;;;;;;;;;;;20.50;70.70;;;;;;5026693;28;1930;-69
2023/10/27 00:21:49;;;;;;;;;;;20.50;70.70;;;;;;5005839;28;1533;-68
2023/10/27 00:24:15;;;;;;;;;;;20.50;70.70;;;;;;5009166;28;1608;-70
2023/10/27 00:26:40;;;;;;;;;;;20.50;70.70;;;;;;5005346;28;1822;-70
2023/10/27 00:29:07;;;;;;;;;;;20.50;70.80;;;;;;5009423;28;1392;-70
2023/10/27 00:31:32;;;;;;;;;;;20.50;70.80;;;;;;5026968;28;1392;-69
2023/10/27 00:33:58;;;;;;;;;;;20.50;70.80;;;;;;5026435;28;1391;-70
2023/10/27 00:36:23;;;;;;;;;;;20.50;70.80;;;;;;5025021;28;1271;-70
2023/10/27 00:38:50;;;;;;;;;;;20.50;70.80;;;;;;5026242;28;1898;-69
2023/10/27 00:41:15;;;;;;;;;;;20.50;70.90;;;;;;5008619;28;1517;-70
2023/10/27 00:43:42;;;;;;;;;;;20.50;70.90;;;;;;5006249;28;1490;-70
2023/10/27 00:46:08;;;;;;;;;;;20.50;70.90;;;;;;5002716;28;1491;-73
2023/10/27 00:48:33;;;;;;;;;;;20.50;70.90;;;;;;5014269;28;1323;-72
2023/10/27 00:50:59;;;;;;;;;;;20.50;70.90;;;;;;5013487;28;1276;-72
2023/10/27 00:53:25;;;;;;;;;;;20.40;70.90;;;;;;4993269;28;1268;-71
2023/10/27 00:55:50;;;;;;;;;;;20.40;70.90;;;;;;5004861;28;1536;-72
2023/10/27 00:58:16;;;;;;;;;;;20.40;70.90;;;;;;4991111;28;1316;-72
2023/10/27 01:00:42;;;;;;;;;;;20.40;70.90;;;;;;5027829;28;1928;-72
2023/10/27 01:03:07;;;;;;;;;;;20.40;70.90;;;;;;5029974;28;1282;-72
2023/10/27 01:05:32;;;;;;;;;;;20.40;70.90;;;;;;4999685;28;1365;-72
2023/10/27 01:07:58;;;;;;;;;;;20.40;71.00;;;;;;5006904;28;1516;-72
2023/10/27 01:10:26;;;;;;;;;;;20.40;71.00;;;;;;5008878;28;1725;-71
2023/10/27 01:12:52;;;;;;;;;;;20.40;71.00;;;;;;5006785;28;1471;-72
2023/10/27 01:15:18;;;;;;;;;;;20.40;71.00;;;;;;5006552;28;1775;-72
2023/10/27 01:17:43;;;;;;;;;;;20.40;71.00;;;;;;5008515;28;1375;-71
2023/10/27 01:20:09;;;;;;;;;;;20.40;71.00;;;;;;5013651;28;1910;-70
2023/10/27 01:22:41;;;;;;;;;;;20.40;71.00;;;;;;5013665;28;1473;-70
2023/10/27 01:25:07;;;;;;;;;;;20.40;71.10;;;;;;5008503;28;1461;-69
2023/10/27 01:27:32;;;;;;;;;;;20.40;71.10;;;;;;5031022;28;1477;-70
2023/10/27 01:29:58;;;;;;;;;;;20.40;71.10;;;;;;5010026;28;1699;-71
2023/10/27 01:32:24;;;;;;;;;;;20.40;71.10;;;;;;5026950;28;1309;-71
2023/10/27 01:34:49;;;;;;;;;;;20.30;71.00;;;;;;5013935;28;1263;-71
2023/10/27 01:37:14;;;;;;;;;;;20.40;71.20;;;;;;5025336;28;1383;-71
2023/10/27 01:39:40;;;;;;;;;;;20.40;71.10;;;;;;5027546;28;1957;-71
2023/10/27 01:42:05;;;;;;;;;;;20.40;71.10;;;;;;5029078;28;1045;-71
2023/10/27 01:44:31;;;;;;;;;;;20.30;71.10;;;;;;5007160;28;1002;-72
2023/10/27 01:46:56;;;;;;;;;;;20.40;71.20;;;;;;5032006;28;1148;-71
2023/10/27 01:49:22;;;;;;;;;;;20.30;71.10;;;;;;5028478;28;1329;-71
2023/10/27 01:51:48;;;;;;;;;;;20.30;71.10;;;;;;5028802;28;991;-71
2023/10/27 01:54:13;;;;;;;;;;;20.30;71.20;;;;;;5027282;28;975;-70
2023/10/27 01:56:39;;;;;;;;;;;20.30;71.10;;;;;;5029667;28;895;-71
2023/10/27 01:59:05;;;;;;;;;;;20.30;71.10;;;;;;5010543;28;1954;-72
2023/10/27 02:01:30;;;;;;;;;;;20.30;71.20;;;;;;5028789;28;1186;-71
2023/10/27 02:03:56;;;;;;;;;;;20.30;71.20;;;;;;4997227;28;1281;-70
2023/10/27 02:06:25;;;;;;;;;;;20.30;71.20;;;;;;5027173;28;1259;-71
2023/10/27 02:08:51;;;;;;;;;;;20.30;71.20;;;;;;5009635;28;1708;-71
2023/10/27 02:11:17;;;;;;;;;;;20.30;71.30;;;;;;5006451;28;1375;-71
2023/10/27 02:13:42;;;;;;;;;;;20.30;71.50;;;;;;5008573;28;1292;-70
2023/10/27 02:16:08;;;;;;;;;;;20.30;71.20;;;;;;4996078;28;1356;-70
2023/10/27 02:18:33;;;;;;;;;;;20.30;71.30;;;;;;5027913;28;1258;-70
2023/10/27 02:20:59;;;;;;;;;;;20.30;71.30;;;;;;5029980;28;1910;-69
2023/10/27 02:23:25;;;;;;;;;;;20.30;71.30;;;;;;5028777;28;1559;-69
2023/10/27 02:25:51;;;;;;;;;;;20.30;71.30;;;;;;5028438;28;1441;-69
2023/10/27 02:28:17;;;;;;;;;;;20.30;71.40;;;;;;5010572;28;1357;-69
2023/10/27 02:30:42;;;;;;;;;;;20.30;71.30;;;;;;5029933;28;1545;-69
2023/10/27 02:33:08;;;;;;;;;;;20.30;71.40;;;;;;5030761;28;1660;-70
2023/10/27 02:35:33;;;;;;;;;;;20.30;71.40;;;;;;5026578;28;1372;-71
2023/10/27 02:37:59;;;;;;;;;;;20.30;71.40;;;;;;5028002;28;1398;-71
2023/10/27 02:40:24;;;;;;;;;;;20.20;71.30;;;;;;5028535;28;1957;-71
2023/10/27 02:42:50;;;;;;;;;;;20.20;71.40;;;;;;5029127;28;1461;-70
2023/10/27 02:45:15;;;;;;;;;;;20.20;71.40;;;;;;5027803;28;1371;-72
2023/10/27 02:47:40;;;;;;;;;;;20.20;71.40;;;;;;5028087;28;1377;-72
2023/10/27 02:50:06;;;;;;;;;;;20.20;71.40;;;;;;5029179;28;1529;-70
2023/10/27 02:52:32;;;;;;;;;;;20.20;71.40;;;;;;5006402;28;1489;-70
2023/10/27 02:54:57;;;;;;;;;;;20.20;71.40;;;;;;5027408;28;998;-71
2023/10/27 02:57:22;;;;;;;;;;;20.20;72.10;;;;;;5008384;28;1456;-71
2023/10/27 02:59:48;;;;;;;;;;;20.20;71.40;;;;;;5009591;28;1902;-69
2023/10/27 03:02:18;;;;;;;;;;;20.20;71.40;;;;;;5028318;28;1281;-72
2023/10/27 03:04:43;;;;;;;;;;;20.20;71.40;;;;;;5012376;28;1501;-73
2023/10/27 03:07:09;;;;;;;;;;;20.20;71.40;;;;;;5007530;28;1376;-72
2023/10/27 03:09:34;;;;;;;;;;;20.20;71.40;;;;;;5007019;28;1697;-72
2023/10/27 03:12:00;;;;;;;;;;;20.20;71.40;;;;;;5022934;28;1845;-74
2023/10/27 03:14:25;;;;;;;;;;;20.20;71.50;;;;;;5002753;28;1905;-72
2023/10/27 03:16:50;;;;;;;;;;;20.20;71.50;;;;;;5026196;28;1630;-72
2023/10/27 03:19:16;;;;;;;;;;;20.20;71.50;;;;;;5007998;28;1965;-71
2023/10/27 03:21:41;;;;;;;;;;;20.10;71.40;;;;;;5028187;28;1260;-73
2023/10/27 03:24:07;;;;;;;;;;;20.20;71.50;;;;;;5024716;28;1369;-72
2023/10/27 03:26:33;;;;;;;;;;;20.10;71.40;;;;;;5008953;28;1084;-73
2023/10/27 03:28:59;;;;;;;;;;;20.20;71.50;;;;;;5027170;28;1413;-73
2023/10/27 03:31:25;;;;;;;;;;;20.20;71.50;;;;;;5028542;28;1429;-73
2023/10/27 03:33:51;;;;;;;;;;;20.20;71.50;;;;;;5009217;28;1655;-74
2023/10/27 03:36:17;;;;;;;;;;;20.20;71.60;;;;;;5008198;28;1390;-72
2023/10/27 03:38:42;;;;;;;;;;;20.20;71.50;;;;;;5005422;28;1914;-69
2023/10/27 03:41:08;;;;;;;;;;;20.10;71.40;;;;;;5004087;28;1384;-70
2023/10/27 03:43:34;;;;;;;;;;;20.10;71.50;;;;;;5009635;28;1362;-72
2023/10/27 03:46:00;;;;;;;;;;;20.10;71.50;;;;;;5025697;28;972;-69
2023/10/27 03:48:26;;;;;;;;;;;20.20;71.50;;;;;;5022258;28;1612;-70
2023/10/27 03:50:52;;;;;;;;;;;20.10;71.50;;;;;;5004051;28;1374;-70
2023/10/27 03:53:18;;;;;;;;;;;20.10;71.50;;;;;;5025586;28;1028;-71
2023/10/27 03:55:43;;;;;;;;;;;20.10;71.50;;;;;;5026449;28;1301;-73
2023/10/27 03:58:13;;;;;;;;;;;20.10;71.50;;;;;;5005259;28;1444;-73
2023/10/27 04:00:38;;;;;;;;;;;20.10;71.50;;;;;;5026374;28;1927;-76
2023/10/27 04:03:04;;;;;;;;;;;20.10;71.50;;;;;;5007144;28;1307;-73
2023/10/27 04:05:29;;;;;;;;;;;20.10;71.50;;;;;;4995639;28;1335;-71
2023/10/27 04:07:55;;;;;;;;;;;20.10;71.50;;;;;;5026235;28;1126;-70
2023/10/27 04:10:21;;;;;;;;;;;20.10;71.50;;;;;;5021715;28;1338;-70
2023/10/27 04:12:47;;;;;;;;;;;20.10;71.40;;;;;;5025762;28;1297;-70
2023/10/27 04:15:12;;;;;;;;;;;20.20;71.40;;;;;;5006140;28;1349;-70
2023/10/27 04:17:38;;;;;;;;;;;20.20;71.30;;;;;;5026227;28;1061;-70
2023/10/27 04:20:04;;;;;;;;;;;20.30;71.20;;;;;;5003773;28;1898;-69
2023/10/27 04:22:29;;;;;;;;;;;20.30;71.10;;;;;;4991815;28;1264;-68
2023/10/27 04:24:55;;;;;;;;;;;20.40;71.00;;;;;;5024146;28;1014;-72
2023/10/27 04:27:20;;;;;;;;;;;20.50;70.80;;;;;;5001779;28;1299;-73
2023/10/27 04:29:46;;;;;;;;;;;20.60;70.50;;;;;;5026319;28;1355;-72
2023/10/27 04:32:13;;;;;;;;;;;20.70;71.10;;;;;;5003947;28;1202;-72
2023/10/27 04:34:39;;;;;;;;;;;20.80;70.10;;;;;;5026053;28;953;-72
2023/10/27 04:37:04;;;;;;;;;;;20.90;69.80;;;;;;5000218;28;1435;-71
2023/10/27 04:39:30;;;;;;;;;;;21.00;69.60;;;;;;5030958;28;1902;-71
2023/10/27 04:41:55;;;;;;;;;;;21.00;69.30;;;;;;5007155;28;1590;-72
2023/10/27 04:44:23;;;;;;;;;;;21.10;69.10;;;;;;5029510;28;1076;-73
2023/10/27 04:46:49;;;;;;;;;;;21.20;68.80;;;;;;5029765;28;1127;-72
2023/10/27 04:49:15;;;;;;;;;;;21.20;68.60;;;;;;5010303;28;1401;-73
2023/10/27 04:51:41;;;;;;;;;;;21.30;68.40;;;;;;5011659;28;1341;-73
2023/10/27 04:54:06;;;;;;;;;;;21.30;68.10;;;;;;5030144;28;1702;-73
2023/10/27 04:56:33;;;;;;;;;;;21.40;67.90;;;;;;5003094;28;1485;-73
2023/10/27 04:58:58;;;;;;;;;;;21.40;67.70;;;;;;5029089;28;1955;-74
2023/10/27 05:01:25;;;;;;;;;;;21.50;67.60;;;;;;5005610;28;1368;-74
2023/10/27 05:03:51;;;;;;;;;;;21.50;67.40;;;;;;5011978;28;1347;-74
2023/10/27 05:06:16;;;;;;;;;;;21.60;67.40;;;;;;4997999;28;1390;-75
2023/10/27 05:08:42;;;;;;;;;;;21.60;67.20;;;;;;5008352;28;1473;-74
2023/10/27 05:11:08;;;;;;;;;;;21.60;67.10;;;;;;5000923;28;1298;-73
2023/10/27 05:13:33;;;;;;;;;;;21.60;67.00;;;;;;4995984;28;1411;-72
2023/10/27 05:15:59;;;;;;;;;;;21.70;67.00;;;;;;5028360;28;1345;-73
2023/10/27 05:18:25;;;;;;;;;;;21.70;66.80;;;;;;5029655;28;1468;-73
2023/10/27 05:20:50;;;;;;;;;;;21.70;66.70;;;;;;5008611;28;1914;-72
2023/10/27 05:23:16;;;;;;;;;;;21.80;66.70;;;;;;5007560;28;1396;-71
2023/10/27 05:25:41;;;;;;;;;;;21.80;66.60;;;;;;5028382;28;1314;-72
2023/10/27 05:28:08;;;;;;;;;;;21.80;66.60;;;;;;5012239;28;1183;-73
2023/10/27 05:30:37;;;;;;;;;;;21.80;66.50;;;;;;5009750;28;1367;-74
2023/10/27 05:33:02;;;;;;;;;;;21.90;66.50;;;;;;5011804;28;1399;-72
2023/10/27 05:35:28;;;;;;;;;;;21.90;66.40;;;;;;5005023;28;1458;-72
2023/10/27 05:37:53;;;;;;;;;;;21.90;66.30;;;;;;5030379;28;1389;-72
2023/10/27 05:40:19;;;;;;;;;;;21.90;66.30;;;;;;5030086;28;1902;-72
2023/10/27 05:42:45;;;;;;;;;;;21.90;66.20;;;;;;5028229;28;1562;-72
2023/10/27 05:45:13;;;;;;;;;;;22.00;66.20;;;;;;5006813;28;1515;-72
2023/10/27 05:47:39;;;;;;;;;;;21.90;66.10;;;;;;5012296;28;1284;-71
2023/10/27 05:50:08;;;;;;;;;;;22.00;66.20;;;;;;4996181;28;1330;-71
2023/10/27 05:52:33;;;;;;;;;;;22.00;66.10;;;;;;4995149;28;1290;-72
2023/10/27 05:54:59;;;;;;;;;;;22.00;66.80;;;;;;5011670;28;1546;-71
2023/10/27 05:57:24;;;;;;;;;;;22.00;66.10;;;;;;5007173;28;1494;-72
2023/10/27 05:59:50;;;;;;;;;;;22.00;65.90;;;;;;5029053;28;1969;-72
2023/10/27 06:02:15;;;;;;;;;;;22.10;66.00;;;;;;5007266;28;1441;-71
2023/10/27 06:04:41;;;;;;;;;;;22.10;66.00;;;;;;5029397;28;855;-72
2023/10/27 06:07:06;;;;;;;;;;;22.10;66.00;;;;;;5008891;28;1358;-72
2023/10/27 06:09:32;;;;;;;;;;;22.10;65.80;;;;;;5028314;28;1442;-71
2023/10/27 06:11:57;;;;;;;;;;;22.10;65.80;;;;;;5026573;28;1363;-72
2023/10/27 06:14:23;;;;;;;;;;;22.20;65.80;;;;;;5007117;28;1560;-73
2023/10/27 06:16:48;;;;;;;;;;;22.10;65.70;;;;;;5027756;28;958;-70
2023/10/27 06:19:14;;;;;;;;;;;22.10;65.70;;;;;;5028595;28;1979;-71
2023/10/27 06:21:40;;;;;;;;;;;22.20;65.70;;;;;;5028135;28;1366;-72
2023/10/27 06:24:07;;;;;;;;;;;22.20;65.70;;;;;;5027604;28;1366;-71
2023/10/27 06:26:33;;;;;;;;;;;22.20;65.60;;;;;;5004431;28;1420;-74
2023/10/27 06:28:58;;;;;;;;;;;22.30;65.60;;;;;;5028085;28;1339;-73
2023/10/27 06:31:24;;;;;;;;;;;22.20;65.50;;;;;;5028233;28;1522;-72
2023/10/27 06:33:49;;;;;;;;;;;22.30;65.60;;;;;;5009050;28;1184;-73
2023/10/27 06:36:15;;;;;;;;;;;22.30;65.60;;;;;;5027087;28;1357;-70
2023/10/27 06:38:41;;;;;;;;;;;22.30;65.50;;;;;;5027939;28;1616;-72
2023/10/27 06:41:07;;;;;;;;;;;22.30;66.30;;;;;;5004072;28;1902;-72
2023/10/27 06:43:32;;;;;;;;;;;22.30;65.50;;;;;;5002757;28;1554;-74
2023/10/27 06:45:57;;;;;;;;;;;22.30;65.50;;;;;;5025207;28;1135;-73
2023/10/27 06:48:23;;;;;;;;;;;22.30;65.40;;;;;;5028015;28;1303;-74
2023/10/27 06:50:48;;;;;;;;;;;22.30;65.40;;;;;;5007294;28;1303;-70
2023/10/27 06:53:14;;;;;;;;;;;22.40;65.50;;;;;;5006542;28;1482;-70
2023/10/27 06:55:40;;;;;;;;;;;22.30;65.30;;;;;;5026904;28;1322;-72
2023/10/27 06:58:07;;;;;;;;;;;22.40;65.40;;;;;;5026543;28;1294;-71
2023/10/27 07:00:33;;;;;;;;;;;22.40;65.30;;;;;;5006368;28;1950;-71
2023/10/27 07:02:58;;;;;;;;;;;22.40;65.40;;;;;;5028688;28;1317;-72
2023/10/27 07:05:24;;;;;;;;;;;22.40;65.30;;;;;;5004966;28;1352;-72
2023/10/27 07:07:50;;;;;;;;;;;22.40;65.30;;;;;;5025207;28;1269;-71
2023/10/27 07:10:16;;;;;;;;;;;22.40;65.30;;;;;;5006614;28;1493;-72
2023/10/27 07:12:41;;;;;;;;;;;22.40;65.20;;;;;;5004440;28;966;-72
2023/10/27 07:15:07;;;;;;;;;;;22.40;65.20;;;;;;5027467;28;1520;-71
2023/10/27 07:17:32;;;;;;;;;;;22.50;65.20;;;;;;5026162;28;1303;-74
2023/10/27 07:19:58;;;;;;;;;;;22.50;65.20;;;;;;5011000;28;1915;-72
2023/10/27 07:22:23;;;;;;;;;;;22.50;65.20;;;;;;5024405;28;852;-72
2023/10/27 07:24:49;;;;;;;;;;;22.50;65.20;;;;;;5027870;28;991;-73
2023/10/27 07:27:14;;;;;;;;;;;22.50;65.20;;;;;;5026416;28;1164;-73
2023/10/27 07:29:40;;;;;;;;;;;22.50;65.10;;;;;;5010536;28;1350;-70
2023/10/27 07:32:05;;;;;;;;;;;22.50;65.20;;;;;;5002152;28;1020;-72
2023/10/27 07:34:31;;;;;;;;;;;22.50;65.20;;;;;;5027312;28;1133;-73
2023/10/27 07:36:56;;;;;;;;;;;22.50;65.10;;;;;;4996850;28;1471;-74
2023/10/27 07:39:22;;;;;;;;;;;22.50;65.10;;;;;;5008553;28;1919;-73
2023/10/27 07:41:48;;;;;;;;;;;22.50;65.10;;;;;;5027127;28;1594;-72
2023/10/27 07:44:14;;;;;;;;;;;22.50;65.10;;;;;;5024445;28;1394;-71
2023/10/27 07:46:39;;;;;;;;;;;22.50;65.10;;;;;;5005236;28;1277;-72
2023/10/27 07:49:05;;;;;;;;;;;22.50;65.10;;;;;;5007088;28;1526;-72
2023/10/27 07:51:30;;;;;;;;;;;22.50;65.10;;;;;;5026176;28;1111;-73
2023/10/27 07:53:56;;;;;;;;;;;22.50;65.10;;;;;;5007379;28;1241;-73
2023/10/27 07:56:21;;;;;;;;;;;22.50;65.10;;;;;;5026007;28;1374;-73
2023/10/27 07:58:48;;;;;;;;;;;22.50;65.00;;;;;;5023891;28;1232;-72
2023/10/27 08:01:13;;;;;;;;;;;22.50;65.10;;;;;;4986633;28;1450;-72
2023/10/27 08:03:39;;;;;;;;;;;22.50;65.10;;;;;;5008987;28;1383;-72
2023/10/27 08:06:05;;;;;;;;;;;22.50;65.10;;;;;;5006454;28;1506;-72
2023/10/27 08:08:32;;;;;;;;;;;22.50;65.10;;;;;;5006735;28;1397;-71
2023/10/27 08:10:57;;;;;;;;;;;22.50;65.10;;;;;;5027288;28;1305;-73
2023/10/27 08:13:23;;;;;;;;;;;22.50;65.00;;;;;;5011510;28;1559;-72
2023/10/27 08:15:49;;;;;;;;;;;22.50;65.00;;;;;;5029189;28;1384;-72
2023/10/27 08:18:15;;;;;;;;;;;22.60;65.00;;;;;;4996964;28;1292;-72
2023/10/27 08:20:40;;;;;;;;;;;22.50;65.00;;;;;;5029836;28;2007;-74
2023/10/27 08:23:06;;;;;;;;;;;22.60;65.00;;;;;;5007299;28;1489;-70
2023/10/27 08:25:31;;;;;;;;;;;22.60;65.00;;;;;;5029160;28;1139;-72
2023/10/27 08:27:57;;;;;;;;;;;22.60;65.00;;;;;;5026873;28;1801;-70
2023/10/27 08:30:22;;;;;;;;;;;22.60;65.00;;;;;;5028655;28;1313;-70
2023/10/27 08:32:48;;;;;;;;;;;22.60;65.00;;;;;;5027594;28;1430;-73
2023/10/27 08:35:14;;;;;;;;;;;22.60;64.90;;;;;;5008517;28;1116;-71
2023/10/27 08:37:40;;;;;;;;;;;22.60;64.90;;;;;;5028073;28;1343;-71
2023/10/27 08:40:09;;;;;;;;;;;22.60;64.90;;;;;;5028358;28;1901;-70
2023/10/27 08:42:42;;;;;;;;;;;22.60;64.90;;;;;;4994238;28;2070;-70
2023/10/27 08:45:08;;;;;;;;;;;22.50;64.90;;;;;;5007357;28;1557;-70
2023/10/27 08:47:34;;;;;;;;;;;22.50;64.90;;;;;;4995157;28;1519;-70
2023/10/27 08:50:00;;;;;;;;;;;22.50;65.00;;;;;;5006208;28;1702;-69
2023/10/27 08:52:26;;;;;;;;;;;22.50;65.00;;;;;;5005009;28;1637;-70
2023/10/27 08:54:52;;;;;;;;;;;22.50;65.10;;;;;;5030983;28;1443;-71
2023/10/27 08:57:17;;;;;;;;;;;22.50;65.10;;;;;;5028108;28;1835;-71
2023/10/27 08:59:43;;;;;;;;;;;22.50;65.20;;;;;;5003239;28;1987;-74
2023/10/27 09:02:09;;;;;;;;;;;22.50;65.30;;;;;;5024549;28;2142;-73
2023/10/27 09:04:41;;;;;;;;;;;22.40;65.30;;;;;;4997196;28;1542;-70
2023/10/27 09:07:07;;;;;;;;;;;22.40;65.40;;;;;;5006520;28;1977;-69
2023/10/27 09:09:32;;;;;;;;;;;22.40;65.50;;;;;;5026615;28;1968;-69
2023/10/27 09:11:58;;;;;;;;;;;22.30;65.50;;;;;;5030184;28;1639;-70
2023/10/27 09:14:25;;;;;;;;;;;22.30;65.60;;;;;;4993345;28;1560;-70
2023/10/27 09:16:51;;;;;;;;;;;22.30;65.60;;;;;;5003130;28;1891;-70
2023/10/27 09:19:18;;;;;;;;;;;22.30;65.70;;;;;;5027926;28;1981;-70
2023/10/27 09:21:45;;;;;;;;;;;22.30;65.80;;;;;;5008246;28;1455;-70
2023/10/27 09:24:10;;;;;;;;;;;22.30;65.90;;;;;;5005746;28;1427;-70
2023/10/27 09:26:48;;;;;;;;;;;22.20;65.90;;;;;;5011785;28;1644;-70
2023/10/27 09:29:13;;;;;;;;;;;22.20;66.80;;;;;;5002577;28;1356;-70
2023/10/27 09:31:39;;;;;;;;;;;22.20;66.10;;;;;;5029172;28;1489;-70
2023/10/27 09:34:20;;;;;;;;;;;22.20;66.20;;;;;;5029886;28;1285;-70
2023/10/27 09:36:53;;;;;;;;;;;22.10;66.20;;;;;;5028043;28;1161;-70
2023/10/27 09:39:20;;;;;;;;;;;22.10;66.20;;;;;;5009064;28;1934;-69
2023/10/27 09:41:52;;;;;;;;;;;22.10;66.30;;;;;;5027763;28;1486;-69
2023/10/27 09:44:17;;;;;;;;;;;22.10;66.30;;;;;;5027283;28;1533;-70
2023/10/27 09:46:46;;;;;;;;;;;22.10;67.20;;;;;;4995956;28;1344;-70
2023/10/27 09:49:11;;;;;;;;;;;22.00;66.40;;;;;;5005660;28;1542;-69
2023/10/27 09:51:36;;;;;;;;;;;22.00;66.40;;;;;;5009075;28;1538;-70
2023/10/27 09:54:02;;;;;;;;;;;22.00;66.50;;;;;;5006684;28;1371;-70
2023/10/27 09:56:27;;;;;;;;;;;22.00;66.60;;;;;;5009443;28;1284;-70
2023/10/27 09:58:53;;;;;;;;;;;22.00;66.60;;;;;;5009075;28;1977;-70
2023/10/27 10:01:19;;;;;;;;;;;22.00;66.70;;;;;;5005338;28;1516;-70
2023/10/27 10:03:44;;;;;;;;;;;22.00;66.70;;;;;;5008860;28;1259;-70
2023/10/27 10:06:14;;;;;;;;;;;22.00;66.70;;;;;;5026975;28;1265;-69
2023/10/27 10:08:40;;;;;;;;;;;21.90;66.70;;;;;;5026810;28;991;-69
2023/10/27 10:11:15;;;;;;;;;;;21.90;66.70;;;;;;5005121;28;1289;-69
2023/10/27 10:13:41;;;;;;;;;;;21.90;66.80;;;;;;5005919;28;1123;-70
2023/10/27 10:16:08;;;;;;;;;;;21.90;66.80;;;;;;5003981;28;947;-69
2023/10/27 10:18:34;;;;;;;;;;;21.90;66.90;;;;;;5027439;28;1101;-71
2023/10/27 10:20:59;;;;;;;;;;;21.90;66.90;;;;;;5026567;28;1953;-69
2023/10/27 10:23:47;;;;;;;;;;;21.90;67.00;;;;;;5028573;28;1533;-71
2023/10/27 10:26:13;;;;;;;;;;;21.80;66.90;;;;;;5026590;28;1142;-71
2023/10/27 10:28:40;;;;;;;;;;;21.80;67.00;;;;;;5027374;28;1436;-71
2023/10/27 10:31:09;;;;;;;;;;;21.80;67.00;;;;;;5026301;28;1369;-72
2023/10/27 10:33:34;;;;;;;;;;;21.80;67.00;;;;;;5024353;28;1633;-70
2023/10/27 10:36:20;;;;;;;;;;;21.80;67.00;;;;;;5009833;28;1485;-72
2023/10/27 10:38:59;;;;;;;;;;;21.80;67.10;;;;;;5027021;28;1395;-72
2023/10/27 10:41:43;;;;;;;;;;;21.80;67.10;;;;;;5024334;28;1461;-73
2023/10/27 10:44:11;;;;;;;;;;;21.80;67.20;;;;;;5028435;28;1455;-72
2023/10/27 10:46:36;;;;;;;;;;;21.80;67.10;;;;;;5005509;28;1539;-71
2023/10/27 10:49:02;;;;;;;;;;;21.80;67.20;;;;;;5027465;28;1280;-73
2023/10/27 10:51:36;;;;;;;;;;;21.80;67.20;;;;;;5006158;28;2049;-73
2023/10/27 10:54:01;;;;;;;;;;;21.70;67.10;;;;;;5013460;28;2326;-73
2023/10/27 10:56:27;;;;;;;;;;;21.70;67.20;;;;;;5003323;28;2019;-73
2023/10/27 10:58:53;;;;;;;;;;;21.70;67.20;;;;;;5027009;28;1291;-74
2023/10/27 11:01:22;;;;;;;;;;;21.70;67.20;;;;;;5005269;28;2006;-73
2023/10/27 11:03:51;;;;;;;;;;;21.70;67.20;;;;;;5006879;28;1985;-73
2023/10/27 11:06:19;;;;;;;;;;;21.70;67.20;;;;;;5009373;28;1859;-73
2023/10/27 11:08:46;;;;;;;;;;;21.70;67.10;;;;;;5025898;28;2265;-73
2023/10/27 11:11:16;;;;;;;;;;;21.70;66.40;;;;;;5005578;28;1416;-72
2023/10/27 11:13:43;;;;;;;;;;;21.70;65.70;;;;;;5005438;28;949;-74
2023/10/27 11:16:19;;;;;;;;;;;21.70;65.20;;;;;;5007359;28;1370;-72
2023/10/27 11:18:45;;;;;;;;;;;21.80;65.20;;;;;;5012004;28;2273;-72
2023/10/27 11:21:17;;;;;;;;;;;21.80;64.80;;;;;;5007644;28;1910;-72
2023/10/27 11:23:43;;;;;;;;;;;21.90;64.60;;;;;;5025505;28;934;-71
2023/10/27 11:26:09;;;;;;;;;;;21.90;64.80;;;;;;5009985;28;1422;-72
2023/10/27 11:28:38;;;;;;;;;;;22.00;65.10;;;;;;5006921;28;1595;-73
2023/10/27 11:31:12;;;;;;;;;;;22.00;65.10;;;;;;5027261;28;1861;-73
2023/10/27 11:33:56;;;;;;;;;;;22.10;64.80;;;;;;5005323;28;1459;-72
2023/10/27 11:36:22;;;;;;;;;;;22.10;64.20;;;;;;5009984;28;1508;-72
2023/10/27 11:38:48;;;;;;;;;;;22.10;63.90;;;;;;5026839;28;1354;-72
2023/10/27 11:41:13;;;;;;;;;;;22.20;63.90;;;;;;5027223;28;1969;-73
2023/10/27 11:43:42;;;;;;;;;;;22.20;63.50;;;;;;5025375;28;2113;-73
2023/10/27 11:46:08;;;;;;;;;;;22.30;63.30;;;;;;5024042;28;2172;-72
2023/10/27 11:48:33;;;;;;;;;;;22.30;63.50;;;;;;4988308;28;1452;-72
2023/10/27 11:50:59;;;;;;;;;;;22.30;63.50;;;;;;5026121;28;1449;-73
2023/10/27 11:53:24;;;;;;;;;;;22.40;65.00;;;;;;5026705;28;1461;-72
2023/10/27 11:55:50;;;;;;;;;;;22.50;66.30;;;;;;5012652;28;2201;-74
2023/10/27 11:58:15;;;;;;;;;;;22.50;64.20;;;;;;5005719;28;1099;-75
2023/10/27 12:00:41;;;;;;;;;;;22.50;62.50;;;;;;5030533;28;1934;-73
2023/10/27 12:03:06;;;;;;;;;;;22.50;62.10;;;;;;5020448;28;4174;-73
2023/10/27 12:05:32;;;;;;;;;;;22.50;62.10;;;;;;5025793;28;2644;-72
2023/10/27 12:07:57;;;;;;;;;;;22.50;61.90;;;;;;5027398;28;1239;-73
2023/10/27 12:10:22;;;;;;;;;;;22.40;61.40;;;;;;5006877;28;1823;-73
2023/10/27 12:12:48;;;;;;;;;;;22.40;61.00;;;;;;5027220;28;1447;-73
2023/10/27 12:15:14;;;;;;;;;;;22.30;60.70;;;;;;5011142;28;1924;-78
2023/10/27 12:17:40;;;;;;;;;;;22.30;60.50;;;;;;5028683;28;2088;-73
2023/10/27 12:20:06;;;;;;;;;;;22.20;61.10;;;;;;5025396;28;1914;-73
2023/10/27 12:22:32;;;;;;;;;;;22.30;62.00;;;;;;5028547;28;1977;-73
2023/10/27 12:24:57;;;;;;;;;;;22.30;62.30;;;;;;5005782;28;2113;-73
2023/10/27 12:27:23;;;;;;;;;;;22.20;62.40;;;;;;5022295;28;1232;-74
2023/10/27 12:29:48;;;;;;;;;;;22.30;63.10;;;;;;5007443;28;2004;-74
2023/10/27 12:32:14;;;;;;;;;;;22.20;63.90;;;;;;5025538;28;1627;-75
2023/10/27 12:34:40;;;;;;;;;;;22.20;64.30;;;;;;5010645;28;2204;-74
2023/10/27 12:37:07;;;;;;;;;;;22.20;64.40;;;;;;5006343;28;1387;-73
2023/10/27 12:39:33;;;;;;;;;;;22.20;64.60;;;;;;5023368;28;1969;-72
2023/10/27 12:41:58;;;;;;;;;;;22.10;64.60;;;;;;5025622;28;1532;-72
2023/10/27 12:44:24;;;;;;;;;;;22.10;64.80;;;;;;5027447;28;1515;-72
2023/10/27 12:46:50;;;;;;;;;;;22.00;64.90;;;;;;5023859;28;1353;-72
2023/10/27 12:49:16;;;;;;;;;;;22.00;65.00;;;;;;5026125;28;1221;-73
2023/10/27 12:51:41;;;;;;;;;;;22.00;65.10;;;;;;5025879;28;1164;-73
2023/10/27 12:54:08;;;;;;;;;;;22.00;65.20;;;;;;5027204;28;1148;-72
2023/10/27 12:56:33;;;;;;;;;;;21.90;65.20;;;;;;5003174;28;2182;-72
2023/10/27 12:58:59;;;;;;;;;;;21.90;65.30;;;;;;5029972;28;1296;-72
2023/10/27 13:01:25;;;;;;;;;;;21.90;65.40;;;;;;4998959;28;1898;-72
2023/10/27 13:03:50;;;;;;;;;;;21.90;65.50;;;;;;5031307;28;927;-74
2023/10/27 13:06:16;;;;;;;;;;;21.90;65.60;;;;;;5009296;28;1201;-73
2023/10/27 13:08:41;;;;;;;;;;;21.90;65.70;;;;;;5028886;28;1116;-73
2023/10/27 13:11:08;;;;;;;;;;;21.80;65.70;;;;;;5013672;28;1350;-73
2023/10/27 13:13:34;;;;;;;;;;;21.80;65.80;;;;;;5030305;28;903;-75
2023/10/27 13:16:00;;;;;;;;;;;21.80;65.80;;;;;;5028467;28;1112;-75
2023/10/27 13:18:26;;;;;;;;;;;21.80;65.90;;;;;;5029237;28;1279;-75
2023/10/27 13:20:51;;;;;;;;;;;21.80;66.00;;;;;;5005009;28;1966;-74
2023/10/27 13:23:17;;;;;;;;;;;21.80;66.00;;;;;;5008274;28;1199;-74
2023/10/27 13:25:44;;;;;;;;;;;21.80;66.10;;;;;;5012601;28;1425;-74
2023/10/27 13:28:10;;;;;;;;;;;21.80;66.10;;;;;;5030394;28;1382;-73
2023/10/27 13:30:37;;;;;;;;;;;21.80;66.10;;;;;;5003487;28;1276;-72
2023/10/27 13:33:02;;;;;;;;;;;21.70;66.10;;;;;;5028083;28;837;-74
2023/10/27 13:35:28;;;;;;;;;;;21.70;66.20;;;;;;5010954;28;1499;-72
2023/10/27 13:37:57;;;;;;;;;;;21.70;66.20;;;;;;5009648;28;1706;-71
2023/10/27 13:40:23;;;;;;;;;;;21.70;66.20;;;;;;5004616;28;1915;-72
2023/10/27 13:42:48;;;;;;;;;;;21.70;66.30;;;;;;5026463;28;1524;-71
2023/10/27 13:45:15;;;;;;;;;;;21.70;66.30;;;;;;5007525;28;1328;-71
2023/10/27 13:47:40;;;;;;;;;;;21.70;66.30;;;;;;5025001;28;1403;-71
2023/10/27 13:50:07;;;;;;;;;;;21.70;66.30;;;;;;4995470;28;1457;-70
2023/10/27 13:52:33;;;;;;;;;;;21.70;66.40;;;;;;5022115;28;1258;-71
2023/10/27 13:54:59;;;;;;;;;;;21.70;66.30;;;;;;4987967;28;1442;-70
2023/10/27 13:57:25;;;;;;;;;;;21.70;66.40;;;;;;5025644;28;1448;-71
2023/10/27 13:59:51;;;;;;;;;;;21.70;66.40;;;;;;5028276;28;1980;-71
2023/10/27 14:02:16;;;;;;;;;;;21.70;66.40;;;;;;5010413;28;1403;-71
2023/10/27 14:04:42;;;;;;;;;;;21.70;66.40;;;;;;4995982;28;1500;-71
2023/10/27 14:07:07;;;;;;;;;;;21.70;66.40;;;;;;5026678;28;1177;-71
2023/10/27 14:09:33;;;;;;;;;;;21.70;66.40;;;;;;5004504;28;1603;-71
2023/10/27 14:12:00;;;;;;;;;;;21.70;66.40;;;;;;5021973;28;1825;-71
2023/10/27 14:14:25;;;;;;;;;;;21.70;66.40;;;;;;5025315;28;1357;-71
2023/10/27 14:16:51;;;;;;;;;;;21.70;66.40;;;;;;5005153;28;1722;-71
2023/10/27 14:19:16;;;;;;;;;;;21.70;66.50;;;;;;5004285;28;1906;-71
2023/10/27 14:21:43;;;;;;;;;;;21.70;66.50;;;;;;5009062;28;1589;-71
2023/10/27 14:24:09;;;;;;;;;;;21.60;66.50;;;;;;5025726;28;1259;-72
2023/10/27 14:26:34;;;;;;;;;;;21.70;66.50;;;;;;5004803;28;1551;-71